Aviation Digital Data Service (ADDS)

Output produced by METARs form (1919 UTC 23 April 2018)
found at http://www.aviationweather.gov/adds/metars/
 
KPHD 231853Z AUTO 15007KT 110V190 10SM CLR 22/04 A3019 RMK AO2 SLP221 T02220039
KPHD 231753Z AUTO 14012G17KT 10SM CLR 22/04 A3020 RMK AO2 SLP225 T02220044 10222 20122 58015
KPHD 231653Z AUTO 13008KT 090V160 10SM CLR 21/06 A3021 RMK AO2 SLP230 T02060056
KPHD 231553Z AUTO 13011KT 10SM CLR 20/05 A3023 RMK AO2 SLP236 T02000050
KPHD 231453Z AUTO 12012KT 10SM CLR 19/06 A3024 RMK AO2 SLP240 T01890056 58007
KPHD 231353Z AUTO 14010KT 10SM CLR 16/06 A3026 RMK AO2 SLP248 T01610056
KPHD 231253Z AUTO 11009KT 10SM CLR 14/06 A3027 RMK AO2 SLP249 T01390056
KPHD 231153Z AUTO 10006KT 10SM CLR 12/05 A3026 RMK AO2 SLP248 T01220050 10122 20067 53011
KPHD 231053Z AUTO 10003KT 10SM CLR 10/03 A3025 RMK AO2 SLP243 T01000033
KPHD 230953Z AUTO VRB05KT 10SM CLR 11/03 A3024 RMK AO2 SLP239 T01060033
KPHD 230853Z AUTO 10004KT 10SM CLR 09/03 A3023 RMK AO2 SLP237 T00940028 55001
KPHD 230753Z AUTO 12005KT 10SM CLR 10/03 A3023 RMK AO2 SLP236 T01000028
KPHD 230653Z AUTO 10003KT 10SM CLR 08/01 A3023 RMK AO2 SLP237 T00780006
KPHD 230553Z AUTO 00000KT 10SM CLR 07/03 A3024 RMK AO2 SLP240 T00720028 10183 20067 56007
KPHD 230453Z AUTO 00000KT 10SM CLR 09/M01 A3024 RMK AO2 SLP242 T00891006 402110044
KPHD 230353Z AUTO 00000KT 10SM CLR 09/01 A3024 RMK AO2 SLP242 T00940006
KPHD 230253Z AUTO 00000KT 10SM CLR 09/02 A3026 RMK AO2 SLP247 T00940017 53007
KPHD 230153Z AUTO 05004KT 10SM CLR 12/01 A3025 RMK AO2 SLP245 T01170006
KPHD 230053Z AUTO 05004KT 10SM CLR 13/01 A3024 RMK AO2 SLP242 T01330006
KPHD 222353Z AUTO 05005KT 10SM CLR 18/M03 A3024 RMK AO2 SLP240 T01831033 10211 20178 55003
KPHD 222253Z AUTO 00000KT 10SM CLR 20/M03 A3023 RMK AO2 SLP239 T02001033
KPHD 222153Z AUTO 04005KT 10SM CLR 21/M02 A3024 RMK AO2 SLP239 T02061022
KPHD 222053Z AUTO VRB05KT 10SM CLR 21/M02 A3024 RMK AO2 SLP242 T02061022 57019
KPHD 221953Z AUTO 00000KT 10SM CLR 20/M03 A3026 RMK AO2 SLP247 T02001033